• Join FlightAware (Why Join?)
  • Login
  • US Flag 
09:25PM EST


 

Airport Tracker/Info


-or-


 

Live Flight TrackerFlight Track Log ✈ SWA407 ✈ 10-Apr-2013 ✈ KBNA - KTPA

Flight Track Log - Related Links

Times and Time Zones

All times are in EDT time to prevent confusion due to time zone crossing. See the SWA407 flight status page for this flight to view local times or setup timezone preferences in your user account.

Time Position Orientation Groundspeed Altitude Reporting Facility
EDT Latitude Longitude Course Direction KTS MPH feet Rate Location/Type
01:19PM 36.1000 -86.6833 180° South 135 155 1,600  Level Nashville TRACON
01:19PM 36.0833 -86.6833 180° South 163 188 2,100 2,580 Climbing Nashville TRACON
01:20PM 36.0167 -86.6833 180° South 238 274 5,000 2,940 Climbing Nashville TRACON
01:21PM 35.9503 -86.6289 146° Southeast 269 310 8,400 3,060 Climbing Memphis Center
01:22PM 35.8800 -86.5806 151° Southeast 284 327 11,600 3,360 Climbing Memphis Center
01:23PM 35.8011 -86.5231 149° Southeast 310 357 15,200 3,360 Climbing Memphis Center
01:24PM 35.7158 -86.4606 149° Southeast 342 394 18,400 2,700 Climbing Memphis Center
01:26PM 35.5097 -86.4139 170° South 384 442 23,800 2,400 Climbing Atlanta Center
01:27PM 35.3975 -86.3903 170° South 407 468 25,900 2,100 Climbing Atlanta Center
01:28PM 35.2756 -86.3336 159° South 415 478 28,000 1,800 Climbing Atlanta Center
01:29PM 35.1847 -86.2828 155° Southeast 430 495 29,600 1,800 Climbing Atlanta Center
01:30PM 35.0647 -86.2161 156° South 435 501 31,600 1,980 Climbing Atlanta Center
01:31PM 34.9489 -86.1597 158° South 440 506 33,600 1,680 Climbing Atlanta Center
01:32PM 34.8308 -86.1111 161° South 440 506 35,000 660 Climbing Atlanta Center
01:33PM 34.7147 -86.0603 160° South 445 512 35,000  Level Atlanta Center
01:34PM 34.6008 -86.0122 161° South 445 512 35,000  Level Atlanta Center
01:35PM 34.4828 -85.9589 160° South 445 512 35,000 600 Level Atlanta Center
01:36PM 34.3664 -85.9111 161° South 445 512 36,200 1,260 Climbing Atlanta Center
01:37PM 34.2483 -85.8608 161° South 445 512 37,600 1,200 Climbing Atlanta Center
01:38PM 34.1342 -85.8131 161° South 445 512 38,600 900 Climbing Atlanta Center
01:39PM 34.0139 -85.7681 163° South 445 512 39,400 900 Climbing Atlanta Center
01:40PM 33.8933 -85.7206 162° South 445 512 40,400 780 Climbing Atlanta Center
01:41PM 33.7750 -85.6708 161° South 452 520 41,000 300 Climbing Atlanta Center
01:42PM 33.6506 -85.6183 161° South 457 526 41,000  Level Atlanta Center
01:43PM 33.5281 -85.5664 161° South 467 537 41,000  Level Atlanta Center
01:44PM 33.3931 -85.5117 161° South 467 537 41,000  Level Atlanta Center
01:45PM 33.2664 -85.4625 162° South 467 537 41,000  Level Atlanta Center
01:46PM 33.1436 -85.4108 161° South 472 543 41,000  Level Atlanta Center
01:47PM 33.0150 -85.3494 158° South 482 555 41,000  Level Atlanta Center
01:48PM 32.9028 -85.3056 162° South 482 555 41,000  Level Atlanta Center
01:49PM 32.7781 -85.2544 161° South 482 555 41,000  Level Atlanta Center
01:50PM 32.6469 -85.1958 159° South 490 564 41,000  Level Atlanta Center
01:51PM 32.5244 -85.1475 162° South 490 564 41,000  Level Atlanta Center
01:52PM 32.3975 -85.0992 162° South 479 551 41,000  Level Atlanta Center
01:53PM 32.2728 -85.0486 161° South 479 551 41,000  Level Atlanta Center
01:55PM 32.0433 -84.9586 162° South 484 557 41,000  Level Jacksonville Center
01:56PM 31.9208 -84.9094 161° South 477 549 41,000  Level Jacksonville Center
01:57PM 31.7817 -84.8575 162° South 471 542 41,000  Level Jacksonville Center
01:58PM 31.6594 -84.8086 161° South 476 548 41,000  Level Jacksonville Center
01:59PM 31.5306 -84.7597 162° South 476 548 41,000  Level Jacksonville Center
02:00PM 31.4061 -84.6986 157° South 481 554 41,000  Level Jacksonville Center
02:01PM 31.2861 -84.6308 154° Southeast 486 559 41,000  Level Jacksonville Center
02:02PM 31.1597 -84.5606 155° Southeast 497 572 41,000  Level Jacksonville Center
02:03PM 31.0372 -84.4928 155° Southeast 497 572 41,000  Level Jacksonville Center
02:04PM 30.9150 -84.4231 154° Southeast 492 566 41,000  Level Jacksonville Center
02:05PM 30.7925 -84.3581 155° Southeast 486 559 41,000  Level Jacksonville Center
02:06PM 30.6703 -84.2886 154° Southeast 486 559 41,000  Level Jacksonville Center
02:07PM 30.5456 -84.2217 155° Southeast 486 559 41,000  Level Jacksonville Center
02:08PM 30.4231 -84.1572 156° South 481 554 41,000  Level Jacksonville Center
02:09PM 30.2986 -84.0858 154° Southeast 481 554 41,000  Level Jacksonville Center
02:10PM 30.1739 -84.0219 156° South 486 559 41,000  Level Jacksonville Center
02:11PM 30.0492 -83.9531 154° Southeast 486 559 41,000 -180 Level Jacksonville Center
02:12PM 29.9222 -83.8872 156° South 491 565 40,700 -660 Descending Jacksonville Center
02:13PM 29.7933 -83.8164 154° Southeast 502 578 39,700 -1,800 Descending Jacksonville Center
02:14PM 29.6644 -83.7506 156° South 502 578 37,200 -2,700 Descending Jacksonville Center
02:15PM 29.5500 -83.6875 154° Southeast 502 578 34,300 -2,940 Descending Jacksonville Center
02:16PM 29.4314 -83.6222 154° Southeast 491 565 31,400 -3,180 Descending Jacksonville Center
02:17PM 29.3169 -83.5594 154° Southeast 476 548 28,000 -2,460 Descending Jacksonville Center
02:18PM 29.1983 -83.4944 154° Southeast 471 542 26,500 -1,200 Descending Jacksonville Center
02:19PM 29.0817 -83.4225 152° Southeast 466 536 25,600 -1,020 Descending Jacksonville Center
02:20PM 28.9692 -83.3531 152° Southeast 466 536 24,500 -1,500 Descending Jacksonville Center
02:21PM 28.8631 -83.2814 149° Southeast 458 527 22,600 -2,160 Descending Jacksonville Center
02:22PM 28.7589 -83.2147 151° Southeast 444 511 20,200 -2,340 Descending Jacksonville Center
02:23PM 28.6631 -83.1553 151° Southeast 416 479 18,000 -2,340 Descending Jacksonville Center
02:24PM 28.5833 -83.1167 157° South 386 444 16,100 -2,340 Descending Tampa TRACON
02:25PM 28.4833 -83.0500 150° Southeast 370 426 13,700 -1,500 Descending Tampa TRACON
02:26PM 28.3833 -82.9833 150° Southeast 322 371 12,700 -1,140 Descending Tampa TRACON
02:27PM 28.3167 -82.9500 156° South 300 345 11,400 -1,380 Descending Tampa TRACON
02:28PM 28.2667 -82.8833 130° Southeast 292 336 10,100 -1,440 Descending Tampa TRACON
02:29PM 28.2833 -82.7833 79° East 281 323 8,600 -1,500 Descending Tampa TRACON
02:30PM 28.2667 -82.7000 103° East 278 320 7,200 -1,320 Descending Tampa TRACON
02:31PM 28.2667 -82.6167 90° East 255 293 6,000 -1,320 Descending Tampa TRACON
02:32PM 28.2667 -82.5500 90° East 239 275 4,700 -1,140 Descending Tampa TRACON
02:33PM 28.2167 -82.5333 164° South 202 232 4,000 -900 Descending Tampa TRACON
02:34PM 28.1500 -82.5333 180° South 184 212 3,000 -960 Descending Tampa TRACON